Terminal Aerodrome Forecast
Issued by NWS Northern Indiana

Home | Current Version | Previous Version | Text Only | Print | Product List | Glossary On
Versions: 1 2 3 4 5 6 7 8 9 10 11 12 13 14 15 16 17 18
000
FTUS43 KIWX 150500
TAFFWA
TAF
KFWA 150535Z 1506/1606 22003KT P6SM SCT150
     FM151500 22008KT P6SM BKN060
     FM152000 23010KT P6SM -RA OVC040
     FM152300 30008KT P6SM OVC020
      TEMPO 1523/1603 3SM -RA BR OVC010
     FM160500 35003KT 6SM BR SCT015=

USA.gov is the U.S. government's official web portal to all federal, state and local government web resources and services.